Time,TemperatureF,DewpointF,PressureIn,WindDirection,WindDirectionDegrees,WindSpeedMPH,WindSpeedGustMPH,Humidity,HourlyPrecipIn,Conditions,Clouds,dailyrainin,SolarRadiationWatts/m^2,SoftwareType,DateUTC
2013-02-06 00:02:00,35.0,34.0,-100.00,SW,231,3.0,6.0,98,0.00,,,0.00,0.000000,,2013-02-06 05:02:00,
2013-02-06 00:12:00,35.0,34.0,-100.00,SW,231,3.0,6.0,98,0.00,,,0.00,0.000000,,2013-02-06 05:12:00,
2013-02-06 00:42:00,37.0,36.0,-100.00,SSW,212,2.0,7.0,95,0.00,,,0.00,0.000000,,2013-02-06 05:42:00,
2013-02-06 00:53:00,37.0,36.0,-100.00,SSW,212,2.0,7.0,95,0.00,,,0.00,0.000000,,2013-02-06 05:53:00,
2013-02-06 01:01:00,37.0,36.0,-100.00,SSW,212,2.0,7.0,95,0.00,,,0.00,0.000000,,2013-02-06 06:01:00,
2013-02-06 01:11:00,37.0,36.0,-100.00,SSW,212,2.0,7.0,95,0.00,,,0.00,0.000000,,2013-02-06 06:11:00,
2013-02-06 01:32:00,36.0,35.0,-100.00,WSW,254,3.0,6.0,95,0.00,,,0.00,0.000000,,2013-02-06 06:32:00,
2013-02-06 01:42:00,36.0,35.0,-100.00,WSW,254,3.0,6.0,95,0.00,,,0.00,0.000000,,2013-02-06 06:42:00,
2013-02-06 01:52:00,36.0,35.0,-100.00,WSW,254,3.0,6.0,95,0.00,,,0.00,0.000000,,2013-02-06 06:52:00,
2013-02-06 02:02:00,36.0,35.0,-100.00,WSW,254,3.0,6.0,95,0.00,,,0.00,0.000000,,2013-02-06 07:02:00,
2013-02-06 02:11:00,36.0,35.0,-100.00,WSW,254,3.0,6.0,95,0.00,,,0.00,0.000000,,2013-02-06 07:11:00,
2013-02-06 02:32:00,37.0,34.0,-100.00,WSW,254,1.0,7.0,87,0.00,,,0.00,0.000000,,2013-02-06 07:32:00,
2013-02-06 02:42:00,37.0,34.0,-100.00,WSW,254,1.0,7.0,87,0.00,,,0.00,0.000000,,2013-02-06 07:42:00,
2013-02-06 02:52:00,37.0,34.0,-100.00,WSW,254,1.0,7.0,87,0.00,,,0.00,0.000000,,2013-02-06 07:52:00,
2013-02-06 03:01:00,37.0,34.0,-100.00,WSW,254,1.0,7.0,87,0.00,,,0.00,0.000000,,2013-02-06 08:01:00,
2013-02-06 03:11:00,37.0,34.0,-100.00,WSW,254,1.0,7.0,87,0.00,,,0.00,0.000000,,2013-02-06 08:11:00,
2013-02-06 03:42:00,39.0,32.0,-100.00,SE,124,2.0,9.0,77,0.00,,,0.00,0.000000,,2013-02-06 08:42:00,
2013-02-06 03:53:00,39.0,32.0,-100.00,SE,124,2.0,9.0,77,0.00,,,0.00,0.000000,,2013-02-06 08:53:00,
2013-02-06 04:02:00,39.0,32.0,-100.00,SE,124,2.0,9.0,77,0.00,,,0.00,0.000000,,2013-02-06 09:02:00,
2013-02-06 04:11:00,39.0,32.0,-100.00,SE,124,2.0,9.0,77,0.00,,,0.00,0.000000,,2013-02-06 09:11:00,
2013-02-06 04:32:00,38.0,31.0,-100.00,SE,143,1.0,5.0,76,0.00,,,0.00,0.000000,,2013-02-06 09:32:00,
2013-02-06 04:42:00,38.0,31.0,-100.00,SE,143,1.0,5.0,76,0.00,,,0.00,0.000000,,2013-02-06 09:42:00,
2013-02-06 04:52:00,38.0,31.0,-100.00,SE,143,1.0,5.0,76,0.00,,,0.00,0.000000,,2013-02-06 09:52:00,
2013-02-06 05:01:00,38.0,31.0,-100.00,SE,143,1.0,5.0,76,0.00,,,0.00,0.000000,,2013-02-06 10:01:00,
2013-02-06 05:11:00,38.0,31.0,-100.00,SE,143,1.0,5.0,76,0.00,,,0.00,0.000000,,2013-02-06 10:11:00,
2013-02-06 05:42:00,36.0,32.0,-100.00,South,177,1.0,4.0,86,0.00,,,0.00,0.000000,,2013-02-06 10:42:00,
2013-02-06 05:52:00,36.0,32.0,-100.00,South,177,1.0,4.0,86,0.00,,,0.00,0.000000,,2013-02-06 10:52:00,
2013-02-06 06:02:00,36.0,32.0,-100.00,South,177,1.0,4.0,86,0.00,,,0.00,0.000000,,2013-02-06 11:02:00,
2013-02-06 06:11:00,36.0,32.0,-100.00,South,177,1.0,4.0,86,0.00,,,0.00,0.000000,,2013-02-06 11:11:00,
2013-02-06 06:33:00,34.0,32.0,-100.00,SSE,159,1.0,5.0,93,0.00,,,0.00,0.000000,,2013-02-06 11:33:00,
2013-02-06 06:42:00,34.0,32.0,-100.00,SSE,159,1.0,5.0,93,0.00,,,0.00,0.000000,,2013-02-06 11:42:00,
2013-02-06 06:53:00,34.0,32.0,-100.00,SSE,159,1.0,5.0,93,0.00,,,0.00,0.000000,,2013-02-06 11:53:00,
2013-02-06 07:02:00,34.0,32.0,-100.00,SSE,159,1.0,5.0,93,0.00,,,0.00,0.000000,,2013-02-06 12:02:00,
2013-02-06 07:12:00,34.0,32.0,-100.00,SSE,159,1.0,5.0,93,0.00,,,0.00,0.000000,,2013-02-06 12:12:00,
2013-02-06 07:32:00,33.0,32.0,-100.00,SW,217,1.0,4.0,97,0.00,,,0.00,0.000000,,2013-02-06 12:32:00,
2013-02-06 07:42:00,33.0,32.0,-100.00,SW,217,1.0,4.0,97,0.00,,,0.00,0.000000,,2013-02-06 12:42:00,
2013-02-06 07:52:00,33.0,32.0,-100.00,SW,217,1.0,4.0,97,0.00,,,0.00,0.000000,,2013-02-06 12:52:00,
2013-02-06 08:02:00,33.0,32.0,-100.00,SW,217,1.0,4.0,97,0.00,,,0.00,0.000000,,2013-02-06 13:02:00,
2013-02-06 08:12:00,33.0,32.0,-100.00,SW,217,1.0,4.0,97,0.00,,,0.00,0.000000,,2013-02-06 13:12:00,
2013-02-06 08:42:00,33.0,32.0,-100.00,SSW,204,1.0,4.0,98,0.00,,,0.00,14.000000,,2013-02-06 13:42:00,
2013-02-06 08:52:00,33.0,32.0,-100.00,SSW,204,1.0,4.0,98,0.00,,,0.00,14.000000,,2013-02-06 13:52:00,
2013-02-06 09:02:00,33.0,32.0,-100.00,SSW,204,1.0,4.0,98,0.00,,,0.00,14.000000,,2013-02-06 14:02:00,
2013-02-06 09:11:00,33.0,32.0,-100.00,SSW,204,1.0,4.0,98,0.00,,,0.00,14.000000,,2013-02-06 14:11:00,
2013-02-06 09:42:00,34.0,33.0,-100.00,SSE,164,2.0,5.0,95,0.00,,,0.00,37.000000,,2013-02-06 14:42:00,
2013-02-06 09:52:00,34.0,33.0,-100.00,SSE,164,2.0,5.0,95,0.00,,,0.00,37.000000,,2013-02-06 14:52:00,
2013-02-06 10:02:00,34.0,33.0,-100.00,SSE,164,2.0,5.0,95,0.00,,,0.00,37.000000,,2013-02-06 15:02:00,
2013-02-06 10:11:00,34.0,33.0,-100.00,SSE,164,2.0,5.0,95,0.00,,,0.00,37.000000,,2013-02-06 15:11:00,
2013-02-06 10:32:00,42.0,32.0,-100.00,West,265,3.0,8.0,68,0.00,,,0.00,226.000000,,2013-02-06 15:32:00,
2013-02-06 10:42:00,42.0,32.0,-100.00,West,265,3.0,8.0,68,0.00,,,0.00,226.000000,,2013-02-06 15:42:00,
2013-02-06 10:52:00,42.0,32.0,-100.00,West,265,3.0,8.0,68,0.00,,,0.00,226.000000,,2013-02-06 15:52:00,
2013-02-06 11:01:00,42.0,32.0,-100.00,West,265,3.0,8.0,68,0.00,,,0.00,226.000000,,2013-02-06 16:01:00,
2013-02-06 11:11:00,42.0,32.0,-100.00,West,265,3.0,8.0,68,0.00,,,0.00,226.000000,,2013-02-06 16:11:00,
2013-02-06 11:32:00,43.0,28.0,-100.00,West,263,4.0,10.0,55,0.00,,,0.00,446.000000,,2013-02-06 16:32:00,
2013-02-06 11:42:00,43.0,28.0,-100.00,West,263,4.0,10.0,55,0.00,,,0.00,446.000000,,2013-02-06 16:42:00,
2013-02-06 11:52:00,43.0,28.0,-100.00,West,263,4.0,10.0,55,0.00,,,0.00,446.000000,,2013-02-06 16:52:00,
2013-02-06 12:02:00,43.0,28.0,-100.00,West,263,4.0,10.0,55,0.00,,,0.00,446.000000,,2013-02-06 17:02:00,
2013-02-06 12:12:00,43.0,28.0,-100.00,West,263,4.0,10.0,55,0.00,,,0.00,446.000000,,2013-02-06 17:12:00,
2013-02-06 12:32:00,46.0,28.0,-100.00,South,183,3.0,11.0,50,0.00,,,0.00,557.000000,,2013-02-06 17:32:00,
2013-02-06 12:42:00,46.0,28.0,-100.00,South,183,3.0,11.0,50,0.00,,,0.00,557.000000,,2013-02-06 17:42:00,
2013-02-06 12:52:00,46.0,28.0,-100.00,South,183,3.0,11.0,50,0.00,,,0.00,557.000000,,2013-02-06 17:52:00,
2013-02-06 13:02:00,46.0,28.0,-100.00,South,183,3.0,11.0,50,0.00,,,0.00,557.000000,,2013-02-06 18:02:00,
2013-02-06 13:12:00,46.0,28.0,-100.00,South,183,3.0,11.0,50,0.00,,,0.00,557.000000,,2013-02-06 18:12:00,
2013-02-06 13:42:00,49.0,28.0,-100.00,NNE,23,4.0,9.0,44,0.00,,,0.00,582.000000,,2013-02-06 18:42:00,
2013-02-06 13:52:00,49.0,28.0,-100.00,NNE,23,4.0,9.0,44,0.00,,,0.00,582.000000,,2013-02-06 18:52:00,
2013-02-06 14:02:00,49.0,28.0,-100.00,NNE,23,4.0,9.0,44,0.00,,,0.00,582.000000,,2013-02-06 19:02:00,
2013-02-06 14:11:00,49.0,28.0,-100.00,NNE,23,4.0,9.0,44,0.00,,,0.00,582.000000,,2013-02-06 19:11:00,
2013-02-06 14:42:00,50.0,24.0,-100.00,WSW,251,4.0,10.0,36,0.00,,,0.00,549.000000,,2013-02-06 19:42:00,
2013-02-06 14:52:00,50.0,24.0,-100.00,WSW,251,4.0,10.0,36,0.00,,,0.00,549.000000,,2013-02-06 19:52:00,
2013-02-06 15:01:00,50.0,24.0,-100.00,WSW,251,4.0,10.0,36,0.00,,,0.00,549.000000,,2013-02-06 20:01:00,
2013-02-06 15:11:00,50.0,24.0,-100.00,WSW,251,4.0,10.0,36,0.00,,,0.00,549.000000,,2013-02-06 20:11:00,
2013-02-06 15:42:00,51.0,22.0,-100.00,West,265,4.0,13.0,32,0.00,,,0.00,352.000000,,2013-02-06 20:42:00,
2013-02-06 15:52:00,51.0,22.0,-100.00,West,265,4.0,13.0,32,0.00,,,0.00,352.000000,,2013-02-06 20:52:00,
2013-02-06 16:02:00,51.0,22.0,-100.00,West,265,4.0,13.0,32,0.00,,,0.00,352.000000,,2013-02-06 21:02:00,
2013-02-06 16:11:00,51.0,22.0,-100.00,West,265,4.0,13.0,32,0.00,,,0.00,352.000000,,2013-02-06 21:11:00,
2013-02-06 16:32:00,47.0,21.0,-100.00,SW,229,3.0,7.0,35,0.00,,,0.00,197.000000,,2013-02-06 21:32:00,
2013-02-06 16:42:00,47.0,21.0,-100.00,SW,229,3.0,7.0,35,0.00,,,0.00,197.000000,,2013-02-06 21:42:00,
2013-02-06 16:52:00,47.0,21.0,-100.00,SW,229,3.0,7.0,35,0.00,,,0.00,197.000000,,2013-02-06 21:52:00,
2013-02-06 17:01:00,47.0,21.0,-100.00,SW,229,3.0,7.0,35,0.00,,,0.00,197.000000,,2013-02-06 22:01:00,
2013-02-06 17:11:00,47.0,21.0,-100.00,SW,229,3.0,7.0,35,0.00,,,0.00,197.000000,,2013-02-06 22:11:00,
2013-02-06 17:42:00,42.0,25.0,-100.00,SW,228,3.0,6.0,51,0.00,,,0.00,19.000000,,2013-02-06 22:42:00,
2013-02-06 17:52:00,42.0,25.0,-100.00,SW,228,3.0,6.0,51,0.00,,,0.00,19.000000,,2013-02-06 22:52:00,
2013-02-06 18:11:00,42.0,25.0,-100.00,SW,228,3.0,6.0,51,0.00,,,0.00,19.000000,,2013-02-06 23:11:00,
2013-02-06 18:32:00,37.0,28.0,-100.00,SW,236,3.0,6.0,70,0.00,,,0.00,6.000000,,2013-02-06 23:32:00,
2013-02-06 19:11:00,37.0,28.0,-100.00,SW,236,3.0,6.0,70,0.00,,,0.00,6.000000,,2013-02-07 00:11:00,
2013-02-06 19:42:00,34.0,28.0,-100.00,SW,233,3.0,4.0,79,0.00,,,0.00,0.000000,,2013-02-07 00:42:00,
2013-02-06 19:52:00,34.0,28.0,-100.00,SW,233,3.0,4.0,79,0.00,,,0.00,0.000000,,2013-02-07 00:52:00,
2013-02-06 20:01:00,34.0,28.0,-100.00,SW,233,3.0,4.0,79,0.00,,,0.00,0.000000,,2013-02-07 01:01:00,
2013-02-06 20:11:00,34.0,28.0,-100.00,SW,233,3.0,4.0,79,0.00,,,0.00,0.000000,,2013-02-07 01:11:00,
2013-02-06 20:42:00,32.0,27.0,-100.00,SW,233,0.0,4.0,82,0.00,,,0.00,0.000000,,2013-02-07 01:42:00,
2013-02-06 20:52:00,32.0,27.0,-100.00,SW,233,0.0,4.0,82,0.00,,,0.00,0.000000,,2013-02-07 01:52:00,
2013-02-06 21:02:00,32.0,27.0,-100.00,SW,233,0.0,4.0,82,0.00,,,0.00,0.000000,,2013-02-07 02:02:00,
2013-02-06 21:12:00,32.0,27.0,-100.00,SW,233,0.0,4.0,82,0.00,,,0.00,0.000000,,2013-02-07 02:12:00,
2013-02-06 22:02:00,31.0,28.0,-100.00,West,263,3.0,4.0,87,0.00,,,0.00,0.000000,,2013-02-07 03:02:00,
2013-02-06 22:11:00,31.0,28.0,-100.00,West,263,3.0,4.0,87,0.00,,,0.00,0.000000,,2013-02-07 03:11:00,
2013-02-06 22:32:00,29.0,26.0,-100.00,South,181,1.0,3.0,90,0.00,,,0.00,0.000000,,2013-02-07 03:32:00,
2013-02-06 22:42:00,29.0,26.0,-100.00,South,181,1.0,3.0,90,0.00,,,0.00,0.000000,,2013-02-07 03:42:00,
2013-02-06 22:52:00,29.0,26.0,-100.00,South,181,1.0,3.0,90,0.00,,,0.00,0.000000,,2013-02-07 03:52:00,
2013-02-06 23:01:00,29.0,26.0,-100.00,South,181,1.0,3.0,90,0.00,,,0.00,0.000000,,2013-02-07 04:01:00,
2013-02-06 23:11:00,29.0,26.0,-100.00,South,181,1.0,3.0,90,0.00,,,0.00,0.000000,,2013-02-07 04:11:00,
2013-02-06 23:32:00,29.0,27.0,-100.00,SSE,166,0.0,2.0,92,0.00,,,0.00,0.000000,,2013-02-07 04:32:00,
2013-02-06 23:42:00,29.0,27.0,-100.00,SSE,166,0.0,2.0,92,0.00,,,0.00,0.000000,,2013-02-07 04:42:00,
2013-02-06 23:53:00,29.0,27.0,-100.00,SSE,166,0.0,2.0,92,0.00,,,0.00,0.000000,,2013-02-07 04:53:00,